createdAt,value
2022-11-09T00:02:06.820Z,29.90
2022-11-09T00:04:37.784Z,26.50
2022-11-09T00:07:08.822Z,27.60
2022-11-09T00:09:40.412Z,27.90
2022-11-09T00:12:11.254Z,35.30
2022-11-09T00:14:42.034Z,29.10
2022-11-09T00:17:12.885Z,29.30
2022-11-09T00:19:44.483Z,34.50
2022-11-09T00:22:15.254Z,29.30
2022-11-09T00:24:46.002Z,26.90
2022-11-09T00:27:17.905Z,31.70
2022-11-09T00:29:48.893Z,28.70
2022-11-09T00:32:27.488Z,32.10
2022-11-09T00:34:58.828Z,29.50
2022-11-09T00:37:33.863Z,27.60
2022-11-09T00:40:05.063Z,29.40
2022-11-09T00:42:35.949Z,29.40
2022-11-09T00:45:08.043Z,24.10
2022-11-09T00:47:38.967Z,26.30
2022-11-09T00:50:11.152Z,24.60
2022-11-09T00:52:42.011Z,30.20
2022-11-09T00:55:13.131Z,28.40
2022-11-09T00:57:44.077Z,28.20
2022-11-09T01:00:18.168Z,26.70
2022-11-09T01:02:50.866Z,31.10
2022-11-09T01:05:22.568Z,34.80
2022-11-09T01:07:53.528Z,33.30
2022-11-09T01:10:27.879Z,30.90
2022-11-09T01:12:58.819Z,28.00
2022-11-09T01:15:29.665Z,28.60
2022-11-09T01:18:00.560Z,30.80
2022-11-09T01:20:31.458Z,32.70
2022-11-09T01:23:03.908Z,32.60
2022-11-09T01:25:34.931Z,29.10
2022-11-09T01:28:07.431Z,31.10
2022-11-09T01:30:40.498Z,33.00
2022-11-09T01:33:13.472Z,30.70
2022-11-09T01:35:44.378Z,31.30
2022-11-09T01:38:15.312Z,35.40
2022-11-09T01:40:46.179Z,30.90
2022-11-09T01:43:22.174Z,31.80
2022-11-09T01:45:57.417Z,29.00
2022-11-09T01:51:11.251Z,27.60
2022-11-09T01:53:46.917Z,30.90
2022-11-09T01:56:20.655Z,30.60
2022-11-09T01:58:56.299Z,32.20
2022-11-09T02:01:28.161Z,32.00
2022-11-09T02:04:03.898Z,28.60
2022-11-09T02:06:39.631Z,31.50
2022-11-09T02:09:15.478Z,32.40
2022-11-09T02:11:47.565Z,35.90
2022-11-09T02:14:19.979Z,34.20
2022-11-09T02:16:51.280Z,37.60
2022-11-09T02:19:22.222Z,31.80
2022-11-09T02:21:53.159Z,38.10
2022-11-09T02:24:24.125Z,40.30
2022-11-09T02:26:55.367Z,36.70
2022-11-09T02:29:30.414Z,31.40
2022-11-09T02:32:05.311Z,38.00
2022-11-09T02:34:36.707Z,39.80
2022-11-09T02:37:07.736Z,33.50
2022-11-09T02:39:39.259Z,35.30
2022-11-09T02:42:19.867Z,33.50
2022-11-09T02:44:57.563Z,36.10
2022-11-09T02:47:29.020Z,37.40
2022-11-09T02:49:59.909Z,35.80
2022-11-09T02:52:30.811Z,30.70
2022-11-09T02:55:02.142Z,35.90
2022-11-09T02:57:33.141Z,31.40
2022-11-09T03:00:04.959Z,31.80
2022-11-09T03:02:36.902Z,41.20
2022-11-09T03:05:10.101Z,30.30
2022-11-09T03:07:42.664Z,32.10
2022-11-09T03:10:14.014Z,36.00
2022-11-09T03:12:45.435Z,36.80
2022-11-09T03:15:17.946Z,34.70
2022-11-09T03:17:49.608Z,34.50
2022-11-09T03:20:22.032Z,34.80
2022-11-09T03:22:52.924Z,34.60
2022-11-09T03:25:23.950Z,31.90
2022-11-09T03:28:00.440Z,42.70
2022-11-09T03:30:32.042Z,31.10
2022-11-09T03:33:04.565Z,36.30
2022-11-09T03:35:35.580Z,37.60
2022-11-09T03:38:06.884Z,39.40
2022-11-09T03:40:38.230Z,43.00
2022-11-09T03:43:09.117Z,44.70
2022-11-09T03:45:40.133Z,33.80
2022-11-09T03:48:11.060Z,38.40
2022-11-09T03:50:42.046Z,37.20
2022-11-09T03:53:14.304Z,35.30
2022-11-09T03:55:45.601Z,38.10
2022-11-09T03:58:16.558Z,35.90
2022-11-09T04:00:47.464Z,34.10
2022-11-09T04:03:18.557Z,39.10
2022-11-09T04:05:49.672Z,41.20
2022-11-09T04:08:20.586Z,46.00
2022-11-09T04:10:51.551Z,39.40
2022-11-09T04:13:22.618Z,44.10
2022-11-09T04:15:53.718Z,36.10
2022-11-09T04:18:24.578Z,36.40
2022-11-09T04:20:55.451Z,39.70
2022-11-09T04:23:26.466Z,39.40
2022-11-09T04:25:59.007Z,41.00
2022-11-09T04:28:29.905Z,37.70
2022-11-09T04:31:04.529Z,40.10
2022-11-09T04:33:35.434Z,45.70
2022-11-09T04:36:06.865Z,40.80
2022-11-09T04:38:37.865Z,41.00
2022-11-09T04:41:09.483Z,38.10
2022-11-09T04:43:40.387Z,40.00
2022-11-09T04:46:11.293Z,42.60
2022-11-09T04:48:42.202Z,34.50
2022-11-09T04:51:13.523Z,36.50
2022-11-09T04:53:44.335Z,40.30
2022-11-09T04:56:15.324Z,38.50
2022-11-09T04:58:46.278Z,37.40
2022-11-09T05:01:17.913Z,48.00
2022-11-09T05:03:48.832Z,35.90
2022-11-09T05:06:35.127Z,40.20
2022-11-09T05:09:07.626Z,37.90
2022-11-09T05:11:39.104Z,33.60
2022-11-09T05:14:10.006Z,37.00
2022-11-09T05:16:41.021Z,37.60
2022-11-09T05:19:12.027Z,39.20
2022-11-09T05:21:43.265Z,42.40
2022-11-09T05:24:14.440Z,29.00
2022-11-09T05:26:45.452Z,41.10
2022-11-09T05:29:17.842Z,37.50
2022-11-09T05:31:52.275Z,42.20
2022-11-09T05:34:24.230Z,43.30
2022-11-09T05:37:00.713Z,45.00
2022-11-09T05:39:37.864Z,41.60
2022-11-09T05:42:10.450Z,38.50
2022-11-09T05:44:53.651Z,39.20
2022-11-09T05:48:18.167Z,34.30
2022-11-09T05:51:01.374Z,41.20
2022-11-09T05:53:49.374Z,42.10
2022-11-09T05:56:20.691Z,39.70
2022-11-09T05:58:51.616Z,46.50
2022-11-09T06:01:22.695Z,39.90
2022-11-09T06:03:57.803Z,39.00
2022-11-09T06:06:30.112Z,46.10
2022-11-09T06:09:01.315Z,38.60
2022-11-09T06:11:36.138Z,36.50
2022-11-09T06:14:09.079Z,42.80
2022-11-09T06:16:40.927Z,38.60
2022-11-09T06:19:11.905Z,41.00
2022-11-09T06:21:42.980Z,43.10
2022-11-09T06:24:14.348Z,36.70
2022-11-09T06:26:46.580Z,39.30
2022-11-09T06:29:20.163Z,38.90
2022-11-09T06:32:01.604Z,44.30
2022-11-09T06:34:35.159Z,44.60
2022-11-09T06:37:06.129Z,39.80
2022-11-09T06:39:37.215Z,40.70
2022-11-09T06:42:08.406Z,42.00
2022-11-09T06:44:39.491Z,40.80
2022-11-09T06:47:10.389Z,42.00
2022-11-09T06:49:42.669Z,36.80
2022-11-09T06:52:13.977Z,43.20
2022-11-09T06:54:44.949Z,35.00
2022-11-09T06:57:16.023Z,37.20
2022-11-09T06:59:47.006Z,42.50
2022-11-09T07:02:19.197Z,38.90
2022-11-09T07:04:52.646Z,37.80
2022-11-09T07:07:27.928Z,38.90
2022-11-09T07:10:00.630Z,36.60
2022-11-09T07:12:32.714Z,40.70
2022-11-09T07:15:04.205Z,41.80
2022-11-09T07:17:37.147Z,43.90
2022-11-09T07:20:13.470Z,41.10
2022-11-09T07:22:44.681Z,37.60
2022-11-09T07:25:15.770Z,39.40
2022-11-09T07:27:47.723Z,39.40
2022-11-09T07:30:21.876Z,36.00
2022-11-09T07:33:08.807Z,37.50
2022-11-09T07:35:41.009Z,43.00
2022-11-09T07:38:12.348Z,39.30
2022-11-09T07:40:44.020Z,37.10
2022-11-09T07:43:16.095Z,43.20
2022-11-09T07:45:49.876Z,39.50
2022-11-09T07:48:21.260Z,43.10
2022-11-09T07:50:52.683Z,44.30
2022-11-09T07:53:24.067Z,36.70
2022-11-09T07:56:01.575Z,42.40
2022-11-09T07:58:34.825Z,43.40
2022-11-09T08:01:10.288Z,40.50
2022-11-09T08:06:17.172Z,45.80
2022-11-09T08:08:50.365Z,42.10
2022-11-09T08:11:21.345Z,44.20
2022-11-09T08:13:53.050Z,39.20
2022-11-09T08:16:24.307Z,42.00
2022-11-09T08:18:59.747Z,37.70
2022-11-09T08:21:30.670Z,39.80
2022-11-09T08:24:02.043Z,39.50
2022-11-09T08:26:33.180Z,35.00
2022-11-09T08:29:04.139Z,39.30
2022-11-09T08:31:35.646Z,39.80
2022-11-09T08:34:06.924Z,33.40
2022-11-09T08:36:38.599Z,34.10
2022-11-09T08:39:11.721Z,35.40
2022-11-09T08:41:45.053Z,35.80
2022-11-09T08:44:16.082Z,39.10
2022-11-09T08:46:47.120Z,36.60
2022-11-09T08:49:18.161Z,36.80
2022-11-09T08:51:49.306Z,34.40
2022-11-09T08:54:22.583Z,36.90
2022-11-09T08:56:57.951Z,34.10
2022-11-09T08:59:28.869Z,34.00
2022-11-09T09:02:00.200Z,36.40
2022-11-09T09:04:33.663Z,41.00
2022-11-09T09:07:06.138Z,32.90
2022-11-09T09:09:38.366Z,33.20
2022-11-09T09:12:11.476Z,36.40
2022-11-09T09:14:42.512Z,34.40
2022-11-09T09:17:14.006Z,39.10
2022-11-09T09:19:50.115Z,37.90
2022-11-09T09:22:21.382Z,31.20
2022-11-09T09:24:52.392Z,32.50
2022-11-09T09:27:23.903Z,37.10
2022-11-09T09:29:54.704Z,38.70
2022-11-09T09:32:30.214Z,37.00
2022-11-09T09:35:01.461Z,33.90
2022-11-09T09:37:32.664Z,33.20
2022-11-09T09:40:03.707Z,45.60
2022-11-09T09:42:39.500Z,34.00
2022-11-09T09:45:19.767Z,33.30
2022-11-09T09:48:01.042Z,38.30
2022-11-09T09:50:38.257Z,35.20
2022-11-09T09:53:24.348Z,45.30
2022-11-09T09:56:06.101Z,34.10
2022-11-09T09:58:40.347Z,37.80
2022-11-09T10:01:16.755Z,31.20
2022-11-09T10:03:48.890Z,36.70
2022-11-09T10:06:39.854Z,37.90
2022-11-09T10:09:25.192Z,41.60
2022-11-09T10:12:06.636Z,37.30
2022-11-09T10:15:12.633Z,36.50
2022-11-09T10:17:56.816Z,49.60
2022-11-09T10:20:38.621Z,37.70
2022-11-09T10:23:36.877Z,33.50
2022-11-09T10:26:17.725Z,37.10
2022-11-09T10:29:15.137Z,35.20
2022-11-09T10:31:48.274Z,38.80
2022-11-09T10:34:22.334Z,31.20
2022-11-09T10:37:05.705Z,38.30
2022-11-09T10:39:46.445Z,44.00
2022-11-09T10:42:37.062Z,38.70
2022-11-09T10:45:33.436Z,35.20
2022-11-09T10:48:35.743Z,34.20
2022-11-09T10:51:40.989Z,40.00
2022-11-09T10:54:34.929Z,35.00
2022-11-09T10:57:26.365Z,37.70
2022-11-09T11:00:21.916Z,39.80
2022-11-09T11:03:20.286Z,39.30
2022-11-09T11:06:17.018Z,33.40
2022-11-09T11:09:21.993Z,38.30
2022-11-09T11:12:20.973Z,35.50
2022-11-09T11:15:26.694Z,38.20
2022-11-09T11:18:22.190Z,35.20
2022-11-09T11:21:19.264Z,44.40
2022-11-09T11:24:22.637Z,35.40
2022-11-09T11:27:18.166Z,34.20
2022-11-09T11:30:18.224Z,34.70
2022-11-09T11:33:17.993Z,35.10
2022-11-09T11:36:19.446Z,30.70
2022-11-09T11:39:21.004Z,32.00
2022-11-09T11:42:30.460Z,35.60
2022-11-09T11:45:41.601Z,36.00
2022-11-09T11:49:06.876Z,33.90
2022-11-09T11:52:04.484Z,33.00
2022-11-09T11:55:09.020Z,44.00
2022-11-09T11:58:16.139Z,37.40
2022-11-09T12:01:14.459Z,34.30
2022-11-09T12:04:22.399Z,34.30
2022-11-09T12:07:30.087Z,37.70
2022-11-09T12:10:32.197Z,44.10
2022-11-09T12:13:44.486Z,35.50
2022-11-09T12:16:43.306Z,38.90
2022-11-09T12:20:05.044Z,32.20
2022-11-09T12:23:05.734Z,34.00
2022-11-09T12:26:14.879Z,32.70
2022-11-09T12:29:15.523Z,33.80
2022-11-09T12:32:22.962Z,36.00
2022-11-09T12:35:32.990Z,41.40
2022-11-09T12:38:26.433Z,35.30
2022-11-09T12:41:21.792Z,39.70
2022-11-09T12:44:18.190Z,37.20
2022-11-09T12:47:16.087Z,37.00
2022-11-09T12:50:07.681Z,36.40
2022-11-09T12:52:58.433Z,34.00
2022-11-09T12:55:53.276Z,32.60
2022-11-09T12:58:42.821Z,32.70
2022-11-09T13:01:53.145Z,33.30
2022-11-09T13:04:57.775Z,30.40
2022-11-09T13:07:53.442Z,32.20
2022-11-09T13:10:44.304Z,31.70
2022-11-09T13:13:34.383Z,33.80
2022-11-09T13:16:38.214Z,35.80
2022-11-09T13:19:52.492Z,32.70
2022-11-09T13:23:01.351Z,39.00
2022-11-09T13:25:53.340Z,34.10
2022-11-09T13:29:12.067Z,33.40
2022-11-09T13:32:21.782Z,37.40
2022-11-09T13:35:49.605Z,38.10
2022-11-09T13:38:49.259Z,34.70
2022-11-09T13:41:45.627Z,31.70
2022-11-09T13:44:39.336Z,33.40
2022-11-09T13:47:35.545Z,35.60
2022-11-09T13:50:28.158Z,37.10
2022-11-09T13:53:53.005Z,34.50
2022-11-09T13:56:45.489Z,36.20
2022-11-09T13:59:39.266Z,42.70
2022-11-09T14:02:29.382Z,38.00
2022-11-09T14:05:34.720Z,33.50
2022-11-09T14:08:29.211Z,32.00
2022-11-09T14:11:50.343Z,34.20
2022-11-09T14:15:22.185Z,33.30
2022-11-09T14:18:25.818Z,37.60
2022-11-09T14:21:38.141Z,26.80
2022-11-09T14:24:32.860Z,36.80
2022-11-09T14:27:23.936Z,31.30
2022-11-09T14:30:24.836Z,36.20
2022-11-09T14:33:30.790Z,34.30
2022-11-09T14:36:20.985Z,41.90
2022-11-09T14:39:28.695Z,36.20
2022-11-09T14:42:22.181Z,39.90
2022-11-09T14:45:18.624Z,39.20
2022-11-09T14:48:21.188Z,38.40
2022-11-09T14:51:14.753Z,39.40
2022-11-09T14:54:16.452Z,34.50
2022-11-09T14:57:06.644Z,36.90
2022-11-09T14:59:57.842Z,34.90
2022-11-09T15:02:47.775Z,33.60
2022-11-09T15:05:42.036Z,40.00
2022-11-09T15:08:35.451Z,37.60
2022-11-09T15:11:35.869Z,34.70
2022-11-09T15:14:30.553Z,44.70
2022-11-09T15:17:23.409Z,48.20
2022-11-09T15:20:29.284Z,34.80
2022-11-09T15:23:40.390Z,51.20
2022-11-09T15:26:38.885Z,46.20
2022-11-09T15:29:39.618Z,35.80
2022-11-09T15:32:34.181Z,37.20
2022-11-09T15:35:24.022Z,42.50
2022-11-09T15:38:32.337Z,35.00
2022-11-09T15:41:23.470Z,35.30
2022-11-09T15:44:17.349Z,38.70
2022-11-09T15:47:20.068Z,40.90
2022-11-09T15:50:19.538Z,33.70
2022-11-09T15:53:11.405Z,39.10
2022-11-09T15:56:02.412Z,34.80
2022-11-09T15:58:53.575Z,45.00
2022-11-09T16:01:43.760Z,48.80
2022-11-09T16:04:33.685Z,39.60
2022-11-09T16:07:24.955Z,35.20
2022-11-09T16:10:17.960Z,36.20
2022-11-09T16:13:09.920Z,40.30
2022-11-09T16:16:08.197Z,40.00
2022-11-09T16:18:59.292Z,40.70
2022-11-09T16:21:49.444Z,38.90
2022-11-09T16:24:40.480Z,41.50
2022-11-09T16:30:45.539Z,48.40
2022-11-09T16:36:28.133Z,52.10
2022-11-09T16:39:22.407Z,48.90
2022-11-09T16:42:14.804Z,49.70
2022-11-09T16:45:11.225Z,44.60
2022-11-09T16:50:50.323Z,49.50
2022-11-09T16:53:43.385Z,46.10
2022-11-09T16:56:33.844Z,36.70
2022-11-09T16:59:27.480Z,41.80
2022-11-09T17:02:19.705Z,45.60
2022-11-09T17:05:11.772Z,45.50
2022-11-09T17:08:02.135Z,45.50
2022-11-09T17:10:54.397Z,41.80
2022-11-09T17:13:44.992Z,42.90
2022-11-09T17:16:35.418Z,43.40
2022-11-09T17:19:25.195Z,43.30
2022-11-09T17:22:15.287Z,46.90
2022-11-09T17:25:05.839Z,40.80
2022-11-09T17:27:55.707Z,56.30
2022-11-09T17:30:45.350Z,51.50
2022-11-09T17:33:35.152Z,46.90
2022-11-09T17:36:48.865Z,66.00
2022-11-09T17:39:35.223Z,49.50
2022-11-09T17:42:24.952Z,45.70
2022-11-09T17:45:14.651Z,43.00
2022-11-09T17:48:05.724Z,45.10
2022-11-09T17:50:56.003Z,46.90
2022-11-09T17:53:45.896Z,39.30
2022-11-09T17:56:36.260Z,46.10
2022-11-09T17:59:25.769Z,50.50
2022-11-09T18:02:16.398Z,44.00
2022-11-09T18:05:07.537Z,51.90
2022-11-09T18:07:57.579Z,48.20
2022-11-09T18:10:51.199Z,49.40
2022-11-09T18:13:41.114Z,42.90
2022-11-09T18:16:30.944Z,47.60
2022-11-09T18:19:21.246Z,48.40
2022-11-09T18:22:12.914Z,45.10
2022-11-09T18:25:02.729Z,48.50
2022-11-09T18:27:56.756Z,46.50
2022-11-09T18:30:46.432Z,45.20
2022-11-09T18:33:40.871Z,39.60
2022-11-09T18:36:30.856Z,46.40
2022-11-09T18:39:20.325Z,45.60
2022-11-09T18:42:10.214Z,50.20
2022-11-09T18:45:01.475Z,47.00
2022-11-09T18:47:54.650Z,47.00
2022-11-09T18:50:44.786Z,46.00
2022-11-09T18:53:37.672Z,48.70
2022-11-09T18:56:27.880Z,44.00
2022-11-09T18:59:17.715Z,42.70
2022-11-09T19:02:09.043Z,41.10
2022-11-09T19:04:59.145Z,43.10
2022-11-09T19:07:49.168Z,46.50
2022-11-09T19:10:39.453Z,47.20
2022-11-09T19:13:29.344Z,46.10
2022-11-09T19:16:19.581Z,56.40
2022-11-09T19:19:14.722Z,58.10
2022-11-09T19:22:05.034Z,43.70
2022-11-09T19:24:54.874Z,44.50
2022-11-09T19:27:45.010Z,46.60
2022-11-09T19:30:34.893Z,49.70
2022-11-09T19:33:24.738Z,45.10
2022-11-09T19:36:29.761Z,46.40
2022-11-09T19:39:22.917Z,50.80
2022-11-09T19:42:12.995Z,49.00
2022-11-09T19:45:03.228Z,47.70
2022-11-09T19:47:52.885Z,46.20
2022-11-09T19:50:47.318Z,47.60
2022-11-09T19:53:41.179Z,48.60
2022-11-09T19:56:33.385Z,51.20
2022-11-09T19:59:24.055Z,54.20
2022-11-09T20:02:17.537Z,50.80
2022-11-09T20:05:09.255Z,47.60
2022-11-09T20:07:59.258Z,48.50
2022-11-09T20:10:54.455Z,50.10
2022-11-09T20:13:44.147Z,54.60
2022-11-09T20:16:35.463Z,52.90
2022-11-09T20:19:26.205Z,54.90
2022-11-09T20:22:16.125Z,48.20
2022-11-09T20:25:08.889Z,46.80
2022-11-09T20:27:58.459Z,52.80
2022-11-09T20:30:48.225Z,49.50
2022-11-09T20:33:38.271Z,52.40
2022-11-09T20:36:28.139Z,44.30
2022-11-09T20:39:18.181Z,50.70
2022-11-09T20:42:10.023Z,54.30
2022-11-09T20:45:02.330Z,51.60
2022-11-09T20:48:31.075Z,51.20
2022-11-09T20:51:08.246Z,45.70
2022-11-09T20:54:02.442Z,53.40
2022-11-09T20:56:57.398Z,49.90
2022-11-09T20:59:50.118Z,52.60
2022-11-09T21:02:39.467Z,52.30
2022-11-09T21:05:32.685Z,50.10
2022-11-09T21:08:51.030Z,49.20
2022-11-09T21:12:09.666Z,46.50
2022-11-09T21:15:36.855Z,57.20
2022-11-09T21:18:28.260Z,51.60
2022-11-09T21:21:21.050Z,51.60
2022-11-09T21:24:30.146Z,53.00
2022-11-09T21:27:37.958Z,44.60
2022-11-09T21:30:27.783Z,52.50
2022-11-09T21:33:18.147Z,54.40
2022-11-09T21:36:11.932Z,56.70
2022-11-09T21:39:02.142Z,48.00
2022-11-09T21:41:52.347Z,50.00
2022-11-09T21:44:42.731Z,48.80
2022-11-09T21:47:32.896Z,46.50
2022-11-09T21:50:23.629Z,47.10
2022-11-09T21:53:13.553Z,62.10
2022-11-09T21:56:04.207Z,49.00
2022-11-09T21:58:54.410Z,58.10
2022-11-09T22:01:45.608Z,52.10
2022-11-09T22:04:35.461Z,57.20
2022-11-09T22:07:25.713Z,53.50
2022-11-09T22:10:17.306Z,59.20
2022-11-09T22:13:27.681Z,53.20
2022-11-09T22:16:22.971Z,51.80
2022-11-09T22:19:30.488Z,54.30
2022-11-09T22:22:20.690Z,47.30
2022-11-09T22:25:11.310Z,54.80
2022-11-09T22:28:01.052Z,51.40
2022-11-09T22:30:50.852Z,49.20
2022-11-09T22:33:42.546Z,50.20
2022-11-09T22:36:32.130Z,54.30
2022-11-09T22:39:22.106Z,51.50
2022-11-09T22:42:12.001Z,49.70
2022-11-09T22:45:02.143Z,45.80
2022-11-09T22:47:51.555Z,51.90
2022-11-09T22:50:40.986Z,54.70
2022-11-09T22:53:31.026Z,52.40
2022-11-09T22:56:21.439Z,50.50
2022-11-09T22:59:11.086Z,51.90
2022-11-09T23:02:00.587Z,53.70
2022-11-09T23:04:50.473Z,50.90
2022-11-09T23:07:40.273Z,48.80
2022-11-09T23:10:29.997Z,58.60
2022-11-09T23:13:19.979Z,59.70
2022-11-09T23:16:11.966Z,53.20
2022-11-09T23:19:01.560Z,50.20
2022-11-09T23:21:51.169Z,53.90
2022-11-09T23:25:06.886Z,50.20
2022-11-09T23:27:56.517Z,52.50
2022-11-09T23:30:46.336Z,44.70
2022-11-09T23:33:36.309Z,49.00
2022-11-09T23:36:27.258Z,50.70
2022-11-09T23:39:16.853Z,48.20
2022-11-09T23:42:06.772Z,50.10
2022-11-09T23:44:56.066Z,46.20
2022-11-09T23:47:45.795Z,51.70
2022-11-09T23:50:35.474Z,53.50
2022-11-09T23:53:25.184Z,46.00
2022-11-09T23:56:15.004Z,53.90
2022-11-09T23:59:04.487Z,53.80
